Time;durP1;ratioP1;P1;durP2;ratioP2;P2;SDS_P1;SDS_P2;PMS_P1;PMS_P2;Temp;Humidity;BMP_temperature;BMP_pressure;BME280_temperature;BME280_humidity;BME280_pressure;Samples;Min_cycle;Max_cycle;Signal;HPM_P1;HPM_P2
2021/11/17 02:27:51;;;;;;;4.10;3.70;;;;;;;20.64;54.60;97767.59;4964672;28;20219;-63
2021/11/17 02:30:35;;;;;;;4.30;3.90;;;;;;;20.64;54.16;97761.59;4971357;28;20207;-62
2021/11/17 02:33:08;;;;;;;3.60;3.30;;;;;;;20.64;53.77;97764.16;4962121;28;20559;-63
2021/11/17 02:36:08;;;;;;;3.37;3.10;;;;;;;20.56;54.23;97750.22;4970142;28;20208;-62
2021/11/17 02:38:44;;;;;;;3.97;3.67;;;;;;;20.64;54.24;97759.91;4969874;28;20642;-63
2021/11/17 02:41:10;;;;;;;4.00;3.60;;;;;;;20.64;54.29;97762.47;4967560;28;20270;-62
2021/11/17 02:44:02;;;;;;;3.67;3.37;;;;;;;20.65;54.21;97758.22;4956745;28;20199;-61
2021/11/17 02:46:47;;;;;;;3.63;3.30;;;;;;;20.65;54.21;97756.53;4969772;28;20227;-62
2021/11/17 02:49:44;;;;;;;3.60;3.30;;;;;;;20.65;54.15;97751.44;4973565;28;20657;-62
2021/11/17 02:52:13;;;;;;;3.37;3.07;;;;;;;20.66;53.77;97754.88;4956912;28;20204;-62
2021/11/17 02:54:58;;;;;;;4.00;3.70;;;;;;;20.65;54.23;97756.53;4970429;28;20207;-62
2021/11/17 02:57:59;;;;;;;4.20;3.80;;;;;;;20.64;54.06;97757.38;4973696;28;20224;-62
2021/11/17 03:00:47;;;;;;;3.53;3.23;;;;;;;20.65;54.16;97760.78;4969621;28;20736;-62
2021/11/17 03:03:13;;;;;;;3.60;3.30;;;;;;;20.64;54.01;97762.47;4954488;28;20310;-63
2021/11/17 03:05:58;;;;;;;3.63;3.33;;;;;;;20.65;54.06;97758.22;4952609;28;20227;-62
2021/11/17 03:08:44;;;;;;;3.70;3.40;;;;;;;20.65;54.10;97759.09;4965657;28;20224;-62
2021/11/17 03:11:24;;;;;;;3.57;3.27;;;;;;;20.64;54.19;97765.03;4971209;28;20580;-62
2021/11/17 03:14:14;;;;;;;3.40;3.10;;;;;;;20.65;54.18;97760.78;4956427;28;20736;-62
2021/11/17 03:17:12;;;;;;;3.70;3.40;;;;;;;20.64;54.34;97771.81;4951027;28;20220;-62
2021/11/17 03:19:57;;;;;;;3.70;3.40;;;;;;;20.64;54.30;97772.69;4967430;28;20207;-62
2021/11/17 03:22:56;;;;;;;3.53;3.23;;;;;;;20.64;54.26;97774.34;4967092;28;20259;-62
2021/11/17 03:25:35;;;;;;;3.67;3.37;;;;;;;20.64;54.21;97774.34;4968765;28;20373;-62
2021/11/17 03:28:30;;;;;;;3.57;3.27;;;;;;;20.64;54.09;97777.78;4957235;28;20274;-62
2021/11/17 03:31:13;;;;;;;3.40;3.10;;;;;;;20.66;54.13;97782.97;4956067;28;20216;-63
2021/11/17 03:34:01;;;;;;;3.33;3.03;;;;;;;20.65;54.06;97778.66;4966508;28;20239;-62
2021/11/17 03:36:37;;;;;;;3.70;3.40;;;;;;;20.51;54.24;97755.16;4972093;28;20227;-62
2021/11/17 03:39:21;;;;;;;3.53;3.23;;;;;;;20.65;54.20;97781.19;4961004;28;20296;-62
2021/11/17 03:41:58;;;;;;;3.30;3.00;;;;;;;20.65;54.18;97782.06;4954695;28;20224;-62
2021/11/17 03:44:55;;;;;;;3.87;3.30;;;;;;;20.65;54.36;97782.06;4960100;28;20235;-61
2021/11/17 03:48:00;;;;;;;3.70;3.40;;;;;;;20.65;54.15;97788.84;4971379;28;20278;-61
2021/11/17 03:50:29;;;;;;;3.97;3.57;;;;;;;20.64;53.98;97782.91;4941165;28;20218;-62
2021/11/17 03:53:02;;;;;;;3.60;3.30;;;;;;;20.65;54.04;97789.75;4956296;28;20203;-62
2021/11/17 03:55:58;;;;;;;3.57;3.27;;;;;;;20.65;53.86;97791.41;4965188;28;20212;-62
2021/11/17 03:58:56;;;;;;;3.27;3.07;;;;;;;20.65;54.00;97796.53;4966496;28;20244;-61
2021/11/17 04:01:26;;;;;;;3.50;3.20;;;;;;;20.64;54.16;97792.22;4955962;28;20250;-62
2021/11/17 04:04:26;;;;;;;3.37;3.07;;;;;;;20.52;54.05;97791.78;4953289;28;20209;-62
2021/11/17 04:06:55;;;;;;;3.53;3.20;;;;;;;20.65;54.18;97809.28;4954967;28;20714;-62
2021/11/17 04:09:42;;;;;;;3.50;3.20;;;;;;;20.64;54.15;97803.34;4966101;28;20216;-62
2021/11/17 04:12:15;;;;;;;3.40;3.10;;;;;;;20.64;54.20;97802.44;4917769;28;20259;-62
2021/11/17 04:15:23;;;;;;;3.40;3.10;;;;;;;20.64;53.93;97792.22;4966888;28;20570;-61
2021/11/17 04:17:54;;;;;;;3.10;2.80;;;;;;;20.64;54.60;97797.34;4893555;29;20660;-62
2021/11/17 04:20:36;;;;;;;3.47;3.17;;;;;;;20.64;54.20;97798.22;4879072;29;20210;-62
2021/11/17 04:23:14;;;;;;;3.60;3.30;;;;;;;20.64;54.04;97792.22;4943863;28;20238;-62
2021/11/17 04:26:03;;;;;;;3.33;3.03;;;;;;;20.63;54.30;97796.47;4969144;28;20210;-62
2021/11/17 04:28:54;;;;;;;3.80;3.47;;;;;;;20.65;54.16;97802.50;4972097;28;20258;-62
2021/11/17 04:31:38;;;;;;;3.37;3.07;;;;;;;20.65;53.84;97801.63;4955107;28;20211;-62
2021/11/17 04:34:11;;;;;;;3.07;2.87;;;;;;;20.65;54.28;97801.63;4948106;28;20206;-63
2021/11/17 04:36:59;;;;;;;3.40;3.10;;;;;;;20.64;54.17;97795.66;4954966;28;20266;-62
2021/11/17 04:40:00;;;;;;;3.17;2.97;;;;;;;20.65;54.15;97799.06;4955312;28;20618;-62
2021/11/17 04:42:39;;;;;;;3.00;2.80;;;;;;;20.64;54.28;97800.78;4963047;28;20259;-62
2021/11/17 04:45:15;;;;;;;3.27;3.00;;;;;;;20.65;54.17;97807.63;4971056;28;20681;-62
2021/11/17 04:48:05;;;;;;;3.57;3.27;;;;;;;20.64;53.91;97800.78;4955630;28;20640;-62
2021/11/17 04:50:33;;;;;;;2.90;2.70;;;;;;;20.64;54.15;97798.22;4946599;28;20207;-62
2021/11/17 04:53:38;;;;;;;3.50;3.17;;;;;;;20.64;54.02;97797.34;4969917;28;20423;-62
2021/11/17 04:56:43;;;;;;;3.73;3.43;;;;;;;20.64;54.15;97800.78;4890802;29;20341;-62
2021/11/17 04:59:45;;;;;;;2.60;2.40;;;;;;;20.63;54.08;97793.06;4889188;29;20210;-62
2021/11/17 05:02:24;;;;;;;2.93;2.73;;;;;;;20.62;54.09;97791.31;4947881;28;20226;-62
2021/11/17 05:04:51;;;;;;;3.30;3.00;;;;;;;20.63;53.97;97800.72;4969473;28;20203;-63
2021/11/17 05:07:46;;;;;;;3.17;2.87;;;;;;;20.12;54.18;97717.91;4972791;28;20239;-62
2021/11/17 05:10:44;;;;;;;2.97;2.77;;;;;;;20.63;54.08;97806.69;4942630;28;20645;-62
2021/11/17 05:13:14;;;;;;;3.33;3.03;;;;;;;20.62;54.22;97810.06;4956169;28;20216;-62
2021/11/17 05:16:14;;;;;;;2.93;2.73;;;;;;;20.63;54.11;97801.56;4969301;28;20210;-62
2021/11/17 05:18:55;;;;;;;2.87;2.67;;;;;;;20.63;54.26;97805.81;5004442;22;20253;-67
2021/11/17 05:21:56;;;;;;;3.00;2.80;;;;;;;20.63;54.13;97806.69;4990640;28;20199;-66
2021/11/17 05:24:58;;;;;;;2.80;2.60;;;;;;;20.63;54.22;97809.22;4992400;28;20735;-67
2021/11/17 05:27:31;;;;;;;3.00;2.80;;;;;;;20.63;54.53;97809.22;4990816;28;20346;-66
2021/11/17 05:30:29;;;;;;;2.80;2.60;;;;;;;20.51;54.13;97787.47;4973298;28;20661;-66
2021/11/17 05:32:55;;;;;;;3.13;2.83;;;;;;;20.64;54.47;97810.13;4970697;28;20207;-66
2021/11/17 05:35:22;;;;;;;3.20;2.93;;;;;;;20.64;54.24;97810.13;4972241;28;20280;-67
2021/11/17 05:38:33;;;;;;;3.10;2.90;;;;;;;20.51;53.92;97785.78;4972641;28;20234;-67
2021/11/17 05:41:15;;;;;;;3.20;2.90;;;;;;;20.64;54.09;97808.44;4976015;28;20211;-67
2021/11/17 05:44:11;;;;;;;2.80;2.60;;;;;;;20.64;53.91;97820.31;4989830;28;20330;-67
2021/11/17 05:46:38;;;;;;;2.80;2.60;;;;;;;20.64;54.08;97820.31;4961339;28;20191;-65
2021/11/17 05:49:17;;;;;;;2.70;2.50;;;;;;;20.65;54.17;97814.41;4974681;28;20747;-65
2021/11/17 05:51:46;;;;;;;4.00;2.80;;;;;;;20.63;53.88;97811.78;4990641;28;20210;-65
2021/11/17 05:54:30;;;;;;;2.93;2.73;;;;;;;20.56;54.52;97804.72;4975642;28;20195;-64
2021/11/17 05:57:02;;;;;;;2.73;2.53;;;;;;;20.64;54.50;97821.22;4975701;28;20234;-66
2021/11/17 06:00:07;;;;;;;3.07;2.87;;;;;;;20.64;54.55;97817.78;4993126;28;20591;-65
2021/11/17 06:02:43;;;;;;;3.17;2.80;;;;;;;20.58;54.74;97815.88;4955806;28;21326;-70
2021/11/17 06:05:09;;;;;;;2.63;2.43;;;;;;;20.64;54.70;97817.78;4959335;28;20206;-65
2021/11/17 06:07:36;;;;;;;3.03;2.80;;;;;;;20.63;54.56;97821.16;4972933;28;20235;-63
2021/11/17 06:10:16;;;;;;;3.10;2.80;;;;;;;20.63;54.72;97827.09;4980746;28;20345;-66
2021/11/17 06:12:43;;;;;;;2.80;2.60;;;;;;;20.51;54.48;97803.66;4968993;28;20231;-69
2021/11/17 06:15:12;;;;;;;3.17;2.87;;;;;;;20.51;54.73;97807.91;4949297;28;20203;-66
2021/11/17 06:17:39;;;;;;;3.07;2.77;;;;;;;20.50;55.00;97808.72;4966612;28;20222;-66
2021/11/17 06:20:09;;;;;;;2.83;2.63;;;;;;;20.62;54.82;97832.16;4969147;28;20190;-67
2021/11/17 06:22:35;;;;;;;4.53;4.03;;;;;;;20.55;54.16;97810.66;4993373;28;20677;-68
2021/11/17 06:25:06;;;;;;;5.70;5.20;;;;;;;20.62;52.76;97827.06;4975688;28;20680;-67
2021/11/17 06:27:33;;;;;;;7.50;6.80;;;;;;;20.56;51.15;97814.06;4960267;28;20305;-65
2021/11/17 06:30:00;;;;;;;7.40;6.70;;;;;;;20.51;49.68;97813.00;4983988;28;20257;-68
2021/11/17 06:32:27;;;;;;;7.90;7.10;;;;;;;20.57;48.99;97826.03;4961340;28;20620;-67
2021/11/17 06:34:58;;;;;;;9.30;8.20;;;;;;;20.55;48.21;97825.97;4993839;28;20230;-63
2021/11/17 06:37:26;;;;;;;9.63;8.00;;;;;;;20.54;47.81;97829.31;4991182;28;20638;-66
2021/11/17 06:39:54;;;;;;;12.63;8.53;;;;;;;20.53;47.35;97826.69;4991746;28;20633;-63
2021/11/17 06:42:28;;;;;;;9.57;8.40;;;;;;;20.52;47.14;97835.19;4989071;28;20210;-62
2021/11/17 06:44:55;;;;;;;8.70;7.90;;;;;;;20.51;47.25;97830.88;4957544;28;20199;-64
2021/11/17 06:47:22;;;;;;;8.87;7.97;;;;;;;20.49;47.75;97833.38;4972330;28;20218;-63
2021/11/17 06:49:51;;;;;;;8.63;7.83;;;;;;;20.49;48.01;97838.47;4987758;28;20639;-62
2021/11/17 06:52:17;;;;;;;8.00;7.20;;;;;;;20.49;48.62;97851.25;4983572;28;20254;-62
2021/11/17 06:54:44;;;;;;;8.57;7.67;;;;;;;20.49;49.46;97855.50;4987557;28;20249;-63
2021/11/17 06:57:11;;;;;;;9.10;7.00;;;;;;;20.49;50.11;97856.34;4990322;28;20281;-62
2021/11/17 06:59:37;;;;;;;7.70;7.00;;;;;;;20.49;50.29;97861.44;4990703;28;20241;-61
2021/11/17 07:02:07;;;;;;;6.60;6.00;;;;;;;20.49;50.84;97864.00;4972582;28;20201;-63
2021/11/17 07:04:34;;;;;;;7.20;6.53;;;;;;;20.49;51.05;97868.25;4971777;28;20223;-64
2021/11/17 07:07:01;;;;;;;6.67;6.07;;;;;;;20.30;51.44;97845.38;4972971;28;20680;-63
2021/11/17 07:09:27;;;;;;;6.33;5.73;;;;;;;20.36;51.65;97861.81;4957641;28;20230;-62
2021/11/17 07:11:54;;;;;;;6.30;5.70;;;;;;;20.50;51.90;97880.19;4955605;28;20457;-63
2021/11/17 07:14:22;;;;;;;5.83;5.27;;;;;;;20.51;51.73;97887.91;4988701;28;20202;-63
2021/11/17 07:16:49;;;;;;;6.33;5.73;;;;;;;20.52;51.99;97892.22;4985985;28;20580;-63
2021/11/17 07:19:23;;;;;;;5.90;5.40;;;;;;;20.52;51.97;97879.44;4988971;28;20205;-62
2021/11/17 07:21:51;;;;;;;6.07;5.47;;;;;;;20.53;52.06;97893.09;4990234;28;20294;-62
2021/11/17 07:24:19;;;;;;;6.07;5.47;;;;;;;20.53;52.37;97901.63;4987670;28;20219;-63
2021/11/17 07:26:45;;;;;;;5.80;5.30;;;;;;;20.53;52.26;97906.75;4989030;28;20257;-63
2021/11/17 07:29:12;;;;;;;8.77;5.23;;;;;;;20.51;52.21;97899.81;4987218;28;20286;-62
2021/11/17 07:31:39;;;;;;;8.93;8.03;;;;;;;20.49;50.52;97894.63;4988491;28;20237;-62
2021/11/17 07:34:05;;;;;;;8.47;7.63;;;;;;;20.44;49.96;97887.63;4987323;28;20223;-62
2021/11/17 07:36:32;;;;;;;7.83;7.03;;;;;;;20.52;50.12;97904.13;4970239;28;20227;-63
2021/11/17 07:38:59;;;;;;;7.60;6.90;;;;;;;20.52;50.34;97906.69;4986793;28;20851;-62
2021/11/17 07:41:26;;;;;;;9.60;6.73;;;;;;;20.43;50.65;97894.41;4989183;28;20249;-62
2021/11/17 07:43:52;;;;;;;7.87;7.07;;;;;;;20.52;50.73;97910.09;4976217;28;20373;-63
2021/11/17 07:46:19;;;;;;;9.07;6.37;;;;;;;20.48;50.81;97915.88;4989381;28;20223;-62
2021/11/17 07:48:46;;;;;;;6.53;5.93;;;;;;;20.51;51.19;97912.56;4990019;28;20306;-62
2021/11/17 07:51:13;;;;;;;8.63;6.30;;;;;;;20.41;51.48;97895.16;4990318;28;20238;-63
2021/11/17 07:53:40;;;;;;;6.07;5.57;;;;;;;20.41;51.31;97897.72;4974076;28;20635;-62
2021/11/17 07:56:06;;;;;;;7.67;6.17;;;;;;;20.52;51.65;97919.44;4989842;28;20237;-62
2021/11/17 07:58:39;;;;;;;6.50;5.90;;;;;;;20.52;51.70;97916.88;4958050;28;20242;-59
2021/11/17 08:01:05;;;;;;;7.37;5.90;;;;;;;20.49;51.87;97914.22;4956511;28;20210;-63
2021/11/17 08:03:36;;;;;;;6.60;6.00;;;;;;;20.44;52.05;97914.03;4989555;28;20598;-61
2021/11/17 08:06:02;;;;;;;6.27;5.30;;;;;;;20.52;52.34;97933.06;4956119;28;20230;-63
2021/11/17 08:08:31;;;;;;;6.37;5.27;;;;;;;20.53;52.61;97933.94;4956932;28;20250;-63
2021/11/17 08:10:58;;;;;;;6.17;5.57;;;;;;;20.42;52.28;97927.53;4953991;28;20631;-62
2021/11/17 08:13:25;;;;;;;5.30;4.80;;;;;;;20.47;52.39;97937.13;4975027;28;20230;-62
2021/11/17 08:15:52;;;;;;;5.60;5.10;;;;;;;20.54;52.64;97946.78;4988667;28;20331;-61
2021/11/17 08:18:19;;;;;;;5.43;4.93;;;;;;;20.46;52.03;97926.88;4968616;28;20258;-63
2021/11/17 08:20:45;;;;;;;7.23;5.10;;;;;;;20.47;52.43;97933.69;4984567;28;20685;-63
2021/11/17 08:23:12;;;;;;;5.73;5.13;;;;;;;20.54;52.64;97945.91;4984772;28;20716;-63
2021/11/17 08:25:38;;;;;;;5.40;4.90;;;;;;;20.47;52.52;97931.16;4986840;28;20245;-62
2021/11/17 08:28:08;;;;;;;5.00;4.50;;;;;;;20.54;52.75;97945.91;4985948;28;20265;-64
2021/11/17 08:30:35;;;;;;;5.03;4.53;;;;;;;20.54;52.96;97948.47;4988594;28;20231;-62
2021/11/17 08:33:02;;;;;;;6.03;4.63;;;;;;;20.54;52.75;97943.38;4988215;28;20664;-63
2021/11/17 08:35:32;;;;;;;4.77;4.37;;;;;;;20.54;52.72;97951.03;4988039;28;20239;-61
2021/11/17 08:37:59;;;;;;;4.60;4.20;;;;;;;20.32;53.03;97916.09;4988198;28;20504;-63
2021/11/17 08:40:34;;;;;;;4.03;3.63;;;;;;;20.54;53.04;97951.88;4989124;28;20280;-63
2021/11/17 08:43:01;;;;;;;6.13;4.30;;;;;;;20.54;52.91;97959.53;4969578;28;20250;-61
2021/11/17 08:45:28;;;;;;;4.60;4.20;;;;;;;20.54;53.01;97966.34;4969528;28;20203;-62
2021/11/17 08:47:55;;;;;;;4.33;4.00;;;;;;;20.55;53.21;97960.41;4986967;28;20243;-62
2021/11/17 08:50:23;;;;;;;4.40;4.00;;;;;;;20.54;53.09;97964.66;4988083;28;20648;-62
2021/11/17 08:52:51;;;;;;;3.60;3.30;;;;;;;20.30;53.19;97922.81;4973212;28;20304;-63
2021/11/17 08:55:18;;;;;;;4.10;3.70;;;;;;;20.55;53.14;97960.41;4971239;28;20234;-62
2021/11/17 08:57:47;;;;;;;4.17;3.77;;;;;;;20.54;53.00;97958.69;4988419;28;20940;-62
2021/11/17 09:00:15;;;;;;;4.17;3.83;;;;;;;20.55;53.25;97961.31;4988816;28;20234;-63
2021/11/17 09:02:50;;;;;;;4.77;4.33;;;;;;;20.55;53.30;97968.97;4983076;28;20703;-63
2021/11/17 09:05:19;;;;;;;3.80;3.50;;;;;;;20.55;53.29;97971.50;4951730;28;20199;-61
2021/11/17 09:07:46;;;;;;;4.00;3.70;;;;;;;20.47;53.06;97946.47;4988716;28;20246;-63
2021/11/17 09:10:21;;;;;;;4.27;3.80;;;;;;;20.54;53.07;97967.19;4947848;28;20270;-61
2021/11/17 09:12:48;;;;;;;3.80;3.50;;;;;;;20.54;53.03;97954.44;4986162;28;20202;-63
2021/11/17 09:15:15;;;;;;;4.23;3.83;;;;;;;20.53;53.15;97962.91;4991328;28;20557;-61
2021/11/17 09:17:42;;;;;;;4.13;3.73;;;;;;;20.55;53.25;97966.41;4955946;28;20250;-64
2021/11/17 09:20:10;;;;;;;4.07;3.67;;;;;;;20.51;53.24;97964.53;4990368;28;20290;-62
2021/11/17 09:22:37;;;;;;;3.83;3.53;;;;;;;20.55;53.26;97973.19;4985918;28;20277;-62
2021/11/17 09:25:04;;;;;;;4.20;3.80;;;;;;;20.56;53.15;97974.91;4971675;28;20280;-62
2021/11/17 09:27:31;;;;;;;3.70;3.40;;;;;;;20.44;53.44;97954.88;4986692;28;20266;-63
2021/11/17 09:29:58;;;;;;;3.53;3.23;;;;;;;20.22;53.11;97920.78;4975849;28;20321;-62
2021/11/17 09:32:25;;;;;;;3.97;3.60;;;;;;;20.51;53.76;97961.97;4972970;28;20739;-62
2021/11/17 09:34:52;;;;;;;3.40;3.10;;;;;;;20.50;53.55;97970.44;4990254;28;20203;-63
2021/11/17 09:37:23;;;;;;;3.47;3.17;;;;;;;20.44;53.36;97959.09;4991908;28;20247;-62
2021/11/17 09:39:53;;;;;;;3.50;3.20;;;;;;;20.55;53.31;97979.19;4971249;28;20226;-62
2021/11/17 09:42:20;;;;;;;3.20;3.00;;;;;;;20.52;53.48;97963.69;4989788;28;20199;-63
2021/11/17 09:44:46;;;;;;;3.50;3.20;;;;;;;20.38;53.36;97946.97;4991535;28;20222;-62
2021/11/17 09:47:14;;;;;;;3.40;3.10;;;;;;;20.49;53.58;97971.22;4964303;28;20227;-62
2021/11/17 09:49:44;;;;;;;3.10;2.90;;;;;;;20.55;53.40;97986.84;4956840;28;20203;-62
2021/11/17 09:52:20;;;;;;;3.23;2.93;;;;;;;20.55;53.45;97986.84;4991050;28;20258;-63
2021/11/17 09:55:07;;;;;;;3.53;3.23;;;;;;;20.52;53.67;97984.13;4977985;28;20230;-62
2021/11/17 09:57:36;;;;;;;3.50;3.20;;;;;;;20.55;53.64;97994.50;4986446;28;20254;-63
2021/11/17 10:00:18;;;;;;;3.33;3.03;;;;;;;20.55;53.65;97991.94;4970358;28;20230;-64
2021/11/17 10:03:06;;;;;;;3.20;2.90;;;;;;;20.55;53.67;97997.06;4981893;28;20234;-62
2021/11/17 10:13:48;;;;;;;3.47;3.17;;;;;;;20.55;53.50;97998.72;4976586;28;20230;-62
2021/11/17 10:16:15;;;;;;;2.90;2.70;;;;;;;20.50;53.53;97988.31;4957388;28;20316;-63
2021/11/17 10:18:46;;;;;;;3.20;2.90;;;;;;;20.45;53.66;97971.06;4988842;28;20266;-61
2021/11/17 10:21:35;;;;;;;3.57;2.97;;;;;;;20.56;53.89;98001.34;4987856;28;20199;-62
2021/11/17 10:24:11;;;;;;;2.90;2.70;;;;;;;20.48;53.83;97983.94;4988740;28;20231;-63
2021/11/17 10:26:46;;;;;;;3.00;2.80;;;;;;;20.45;53.77;97977.03;4973255;28;20230;-61
2021/11/17 10:29:33;;;;;;;3.50;3.20;;;;;;;20.56;53.59;97991.13;4962324;28;20265;-63
2021/11/17 10:32:11;;;;;;;3.30;3.00;;;;;;;20.57;53.65;97992.00;4975778;28;20207;-60
2021/11/17 10:34:49;;;;;;;4.40;2.83;;;;;;;20.57;53.85;97985.19;4970659;28;20576;-61
2021/11/17 10:37:36;;;;;;;2.87;2.67;;;;;;;20.58;53.60;97991.19;4987544;28;20703;-63
2021/11/17 10:40:12;;;;;;;2.97;2.77;;;;;;;20.58;53.61;97986.97;4991836;28;20213;-63
2021/11/17 10:42:39;;;;;;;2.70;2.50;;;;;;;20.59;53.61;98000.56;4990247;28;20238;-62
2021/11/17 10:45:11;;;;;;;2.93;2.73;;;;;;;20.59;53.59;98000.56;4988001;28;20306;-64
2021/11/17 10:47:44;;;;;;;2.87;2.60;;;;;;;20.59;53.79;97995.47;4989979;28;20782;-61
2021/11/17 10:50:20;;;;;;;2.77;2.57;;;;;;;20.59;53.71;98005.69;4990750;28;20214;-63
2021/11/17 10:53:00;;;;;;;3.00;2.80;;;;;;;20.59;53.70;97998.03;4987566;28;20672;-63
2021/11/17 10:55:45;;;;;;;2.40;2.20;;;;;;;20.56;53.56;97990.25;4989404;28;20720;-62
2021/11/17 10:58:18;;;;;;;2.50;2.30;;;;;;;19.77;53.96;97867.00;4986519;28;20258;-63
2021/11/17 11:01:00;;;;;;;2.63;2.43;;;;;;;20.57;53.65;97992.84;4989715;28;20199;-62
2021/11/17 11:03:29;;;;;;;5.60;2.70;;;;;;;20.57;53.96;97992.00;4988263;28;20219;-64
2021/11/17 11:06:09;;;;;;;2.63;2.43;;;;;;;20.57;54.19;97992.84;4970316;28;20223;-62
2021/11/17 11:09:03;;;;;;;2.53;2.33;;;;;;;20.58;53.75;97986.06;4962217;28;20219;-62
2021/11/17 11:11:30;;;;;;;2.50;2.30;;;;;;;20.47;53.73;97964.34;4979980;28;20228;-62
2021/11/17 11:13:59;;;;;;;2.87;2.53;;;;;;;20.49;53.99;97965.28;4971930;28;20242;-62
2021/11/17 11:16:45;;;;;;;2.80;2.60;;;;;;;20.57;53.93;97979.25;4959721;28;20245;-62
2021/11/17 11:19:14;;;;;;;2.53;2.33;;;;;;;20.56;53.98;97980.91;5104026;22;20765;-61
2021/11/17 11:21:41;;;;;;;3.07;2.70;;;;;;;20.57;54.01;97979.25;5004065;28;20202;-62
2021/11/17 11:24:27;;;;;;;2.57;2.37;;;;;;;20.57;53.78;97974.13;5003726;28;20254;-61
2021/11/17 11:26:59;;;;;;;2.57;2.37;;;;;;;20.57;53.84;97969.88;4999538;28;20616;-63
2021/11/17 11:29:35;;;;;;;2.67;2.37;;;;;;;20.57;53.87;97969.88;4998654;28;20258;-62
2021/11/17 11:32:07;;;;;;;2.33;2.13;;;;;;;20.58;53.87;97971.63;4986187;28;20265;-62
2021/11/17 11:34:37;;;;;;;2.40;2.20;;;;;;;20.58;54.09;97968.19;4986609;28;20373;-61
2021/11/17 11:37:07;;;;;;;2.70;2.50;;;;;;;20.56;53.89;97975.81;5004123;28;20253;-63
2021/11/17 11:39:40;;;;;;;2.40;2.20;;;;;;;20.57;53.95;97963.91;5003888;28;20345;-62
2021/11/17 11:42:24;;;;;;;3.13;2.27;;;;;;;20.57;54.07;97967.31;4987205;28;20237;-63
2021/11/17 11:44:55;;;;;;;2.40;2.20;;;;;;;20.58;54.07;97971.63;4987115;28;20750;-61
2021/11/17 11:47:21;;;;;;;2.90;2.60;;;;;;;20.57;53.99;97966.47;5005654;28;20225;-63
2021/11/17 11:49:51;;;;;;;2.70;2.50;;;;;;;20.58;53.91;97979.28;5006346;28;20248;-62
2021/11/17 11:52:20;;;;;;;2.60;2.40;;;;;;;20.59;53.82;97975.03;5002117;28;20604;-62
2021/11/17 11:54:50;;;;;;;2.60;2.40;;;;;;;20.58;53.89;97973.31;4998298;28;20222;-61
2021/11/17 11:57:32;;;;;;;2.53;2.33;;;;;;;20.57;53.75;97974.13;4996605;28;20610;-61
2021/11/17 12:00:21;;;;;;;2.50;2.30;;;;;;;20.57;53.66;97979.25;4997291;28;20229;-61
2021/11/17 12:02:52;;;;;;;2.77;2.57;;;;;;;20.57;53.95;97979.25;4981747;28;20254;-63
2021/11/17 12:05:36;;;;;;;2.77;2.57;;;;;;;20.57;53.91;97974.97;4993056;28;20770;-62
2021/11/17 12:08:14;;;;;;;2.23;2.13;;;;;;;20.55;53.89;97973.19;4990073;28;20313;-62
2021/11/17 12:10:47;;;;;;;2.40;2.20;;;;;;;20.57;53.84;97987.75;4982365;28;20601;-63
2021/11/17 12:13:17;;;;;;;2.50;2.30;;;;;;;20.58;54.01;97980.97;5000987;28;20739;-62
2021/11/17 12:16:08;;;;;;;2.57;2.37;;;;;;;20.57;53.88;97982.63;4999839;28;20282;-62
2021/11/17 12:19:04;;;;;;;2.40;2.20;;;;;;;20.57;53.93;97980.09;4995679;28;20247;-61
2021/11/17 12:21:39;;;;;;;2.50;2.30;;;;;;;20.57;53.82;97969.88;4995941;28;20872;-62
2021/11/17 12:24:05;;;;;;;2.50;2.30;;;;;;;20.57;53.87;97977.53;4994229;28;20308;-61
2021/11/17 12:26:34;;;;;;;2.47;2.27;;;;;;;20.57;54.01;97982.63;4998837;28;20742;-62
2021/11/17 12:29:14;;;;;;;2.37;2.17;;;;;;;20.43;54.11;97954.81;4971424;28;20233;-62
2021/11/17 12:31:50;;;;;;;2.40;2.20;;;;;;;20.56;53.92;97970.69;4995042;28;20237;-61
2021/11/17 12:34:25;;;;;;;2.30;2.10;;;;;;;20.53;54.12;97959.47;4986241;28;20244;-63
2021/11/17 12:36:58;;;;;;;1.83;1.73;;;;;;;20.59;54.13;97975.03;4989938;28;20285;-62
2021/11/17 12:39:37;;;;;;;2.40;2.27;;;;;;;20.58;54.30;97976.75;5007995;28;20248;-61
2021/11/17 12:42:05;;;;;;;2.47;2.27;;;;;;;20.59;54.07;97975.03;5004263;28;20654;-61
2021/11/17 12:44:39;;;;;;;2.23;2.03;;;;;;;20.59;54.20;97975.03;5003613;28;20251;-61
2021/11/17 12:47:18;;;;;;;2.20;1.90;;;;;;;20.54;54.18;97964.66;4999020;28;20206;-61
2021/11/17 12:49:55;;;;;;;2.27;2.10;;;;;;;20.58;53.77;97979.28;4992351;28;20284;-62
2021/11/17 12:52:29;;;;;;;2.10;2.00;;;;;;;20.57;53.83;97977.53;4992910;28;20245;-61
2021/11/17 12:55:04;;;;;;;3.23;2.17;;;;;;;20.59;54.17;97983.59;4991766;28;20256;-62
2021/11/17 12:57:38;;;;;;;2.20;2.00;;;;;;;20.59;54.02;97981.03;4994712;28;20322;-61
2021/11/17 13:00:13;;;;;;;2.33;2.13;;;;;;;20.59;54.14;97983.59;5001166;28;20545;-61
2021/11/17 13:03:06;;;;;;;3.17;2.17;;;;;;;20.60;54.17;97987.03;5002216;28;20238;-62
2021/11/17 13:05:34;;;;;;;1.90;1.80;;;;;;;20.59;54.20;97993.81;5006479;28;20227;-61
2021/11/17 13:08:04;;;;;;;3.03;2.30;;;;;;;20.59;54.05;97993.81;4992202;28;20254;-62
2021/11/17 13:10:43;;;;;;;2.20;2.00;;;;;;;20.60;54.11;97992.13;5012724;28;20199;-62
2021/11/17 13:13:10;;;;;;;2.67;2.17;;;;;;;20.60;54.02;97992.13;5009180;28;20675;-61
2021/11/17 13:15:40;;;;;;;2.07;1.87;;;;;;;20.55;54.11;97983.41;5009525;28;20297;-61
2021/11/17 13:18:07;;;;;;;3.60;2.10;;;;;;;20.59;53.90;97996.34;4990150;28;20633;-61
2021/11/17 13:20:43;;;;;;;3.37;2.20;;;;;;;20.59;53.86;97992.91;4990664;28;20235;-61
2021/11/17 13:23:10;;;;;;;3.93;3.30;;;;;;;20.58;52.07;97997.19;5008949;28;20268;-62
2021/11/17 13:25:54;;;;;;;3.40;3.10;;;;;;;20.53;52.41;97995.22;5003990;28;20292;-61
2021/11/17 13:28:34;;;;;;;2.90;2.70;;;;;;;20.53;52.72;97993.56;4988206;28;20593;-62
2021/11/17 13:31:32;;;;;;;2.97;2.77;;;;;;;20.56;52.95;98006.44;4990039;28;20202;-62
2021/11/17 13:34:11;;;;;;;2.33;2.13;;;;;;;20.55;53.25;98003.81;5006245;28;20263;-62
2021/11/17 13:36:40;;;;;;;3.47;2.67;;;;;;;20.57;53.13;98010.72;5008158;28;20199;-61
2021/11/17 13:39:07;;;;;;;4.20;2.67;;;;;;;20.57;53.35;98007.31;4991880;28;20716;-60
2021/11/17 13:41:41;;;;;;;2.93;2.70;;;;;;;20.57;53.32;98010.72;5011191;28;20664;-61
2021/11/17 13:44:08;;;;;;;2.80;2.60;;;;;;;20.55;53.35;98007.25;5006961;28;20280;-62
2021/11/17 13:46:36;;;;;;;2.50;2.30;;;;;;;20.52;53.34;98003.69;5008192;28;20210;-61
2021/11/17 13:49:04;;;;;;;2.73;2.47;;;;;;;20.53;53.58;98006.31;4989940;28;20329;-62
2021/11/17 13:51:30;;;;;;;2.30;2.10;;;;;;;20.56;53.49;98011.56;4977015;28;20631;-61
2021/11/17 13:53:57;;;;;;;2.50;2.30;;;;;;;20.56;53.45;98013.22;5009548;28;20217;-62
2021/11/17 13:56:30;;;;;;;4.73;2.33;;;;;;;20.51;53.60;97995.16;5010333;28;20233;-61
2021/11/17 13:58:56;;;;;;;2.87;2.67;;;;;;;20.56;53.54;98009.00;4977318;28;20297;-61
2021/11/17 14:01:23;;;;;;;2.67;2.40;;;;;;;20.56;53.83;98009.00;4976850;28;20633;-62
2021/11/17 14:03:50;;;;;;;2.47;2.27;;;;;;;20.56;53.54;98006.44;4992891;28;20322;-61
2021/11/17 14:06:18;;;;;;;2.63;2.40;;;;;;;20.57;53.55;98015.00;4974470;28;20198;-61
2021/11/17 14:08:44;;;;;;;4.07;2.63;;;;;;;20.52;53.57;98002.00;5009054;28;20639;-61
2021/11/17 14:11:11;;;;;;;2.70;2.30;;;;;;;20.57;53.65;98015.84;4959385;28;20680;-62
2021/11/17 14:13:38;;;;;;;5.43;2.37;;;;;;;20.57;53.54;98015.84;4990579;28;20282;-61
2021/11/17 14:16:05;;;;;;;4.77;2.37;;;;;;;20.58;53.78;98020.16;4980317;28;20195;-62
2021/11/17 14:18:32;;;;;;;4.33;2.10;;;;;;;20.54;53.83;98012.31;5008127;28;20240;-62
2021/11/17 14:21:00;;;;;;;3.83;2.47;;;;;;;20.58;53.82;98017.59;4988882;28;20289;-60
2021/11/17 14:23:26;;;;;;;4.57;2.87;;;;;;;20.59;53.61;98023.56;4990305;28;20269;-62
2021/11/17 14:25:53;;;;;;;3.63;2.67;;;;;;;20.58;53.95;98022.72;5009383;28;20345;-62
2021/11/17 14:28:25;;;;;;;3.50;2.33;;;;;;;20.58;53.84;98020.16;5006630;28;20308;-62
2021/11/17 14:30:58;;;;;;;2.90;2.20;;;;;;;20.58;53.75;98020.16;4991690;28;20731;-61
2021/11/17 14:33:31;;;;;;;2.63;2.40;;;;;;;20.59;54.17;98026.13;4984834;28;20664;-60
2021/11/17 14:36:00;;;;;;;4.40;2.53;;;;;;;20.56;53.94;98018.31;4990239;28;20237;-61
2021/11/17 14:38:26;;;;;;;2.30;2.10;;;;;;;20.59;54.03;98031.22;4989845;28;20789;-63
2021/11/17 14:40:53;;;;;;;3.13;2.33;;;;;;;20.59;54.08;98036.31;5006813;28;20889;-61
2021/11/17 14:43:22;;;;;;;3.10;2.30;;;;;;;20.58;53.92;98038.03;5000136;28;20234;-61
2021/11/17 14:45:49;;;;;;;5.03;2.07;;;;;;;20.53;53.87;98026.75;5004616;28;20214;-62